Time;durP1;ratioP1;P1;durP2;ratioP2;P2;SDS_P1;SDS_P2;PMS_P1;PMS_P2;Temp;Humidity;BMP_temperature;BMP_pressure;BME280_temperature;BME280_humidity;BME280_pressure;Samples;Min_cycle;Max_cycle;Signal;HPM_P1;HPM_P2
2023/05/18 04:05:36;;;;;;;3.45;2.50;;;4.60;99.90;;;;;;5344828;23;20279;-64
2023/05/18 04:08:01;;;;;;;1.80;1.70;;;4.60;99.90;;;;;;4975440;28;20173;-64
2023/05/18 04:10:28;;;;;;;3.67;3.38;;;4.60;99.90;;;;;;4975455;28;20231;-64
2023/05/18 04:12:54;;;;;;;2.43;2.23;;;4.70;99.90;;;;;;4975582;28;20169;-64
2023/05/18 04:15:19;;;;;;;2.93;2.67;;;4.70;99.90;;;;;;4975039;28;20191;-64
2023/05/18 04:17:45;;;;;;;2.43;2.33;;;4.80;99.90;;;;;;4975364;28;20508;-64
2023/05/18 04:20:13;;;;;;;2.37;2.17;;;4.90;99.90;;;;;;4975209;28;20180;-63
2023/05/18 04:22:42;;;;;;;4.32;3.72;;;4.90;99.90;;;;;;4975364;28;20172;-65
2023/05/18 04:25:10;;;;;;;2.53;2.40;;;5.00;99.90;;;;;;4957455;28;20536;-65
2023/05/18 04:27:37;;;;;;;2.63;2.35;;;5.10;99.90;;;;;;4975330;28;20191;-64
2023/05/18 04:30:03;;;;;;;1.95;1.85;;;5.30;99.90;;;;;;4975176;28;20161;-64
2023/05/18 04:32:29;;;;;;;2.30;1.70;;;5.40;99.90;;;;;;4975112;28;20652;-65
2023/05/18 04:34:57;;;;;;;3.58;3.28;;;5.60;99.90;;;;;;4973666;28;20319;-64
2023/05/18 04:37:23;;;;;;;1.65;1.55;;;5.80;99.90;;;;;;4975101;28;20537;-65
2023/05/18 04:39:50;;;;;;;2.28;1.67;;;6.10;99.90;;;;;;4974902;28;20193;-64
2023/05/18 04:42:17;;;;;;;1.75;1.65;;;6.30;99.90;;;;;;4974420;28;20251;-66
2023/05/18 04:44:43;;;;;;;7.07;2.95;;;6.50;99.90;;;;;;4974102;28;20723;-68
2023/05/18 04:47:09;;;;;;;2.63;2.53;;;6.80;99.90;;;;;;4951642;28;20186;-67
2023/05/18 04:49:34;;;;;;;2.27;2.13;;;7.00;99.90;;;;;;4974894;28;20503;-67
2023/05/18 04:52:00;;;;;;;4.20;3.03;;;7.20;99.90;;;;;;4974635;28;20423;-66
2023/05/18 04:54:30;;;;;;;2.77;2.57;;;7.40;99.90;;;;;;4973631;28;20218;-64
2023/05/18 04:56:56;;;;;;;3.13;2.92;;;7.60;99.90;;;;;;4968109;28;20660;-65
2023/05/18 04:59:27;;;;;;;3.50;2.65;;;7.70;99.90;;;;;;4974370;28;20235;-64
2023/05/18 05:01:53;;;;;;;4.25;2.72;;;8.00;99.90;;;;;;4969406;28;20551;-64
2023/05/18 05:04:20;;;;;;;2.95;2.75;;;8.00;99.90;;;;;;4960641;28;20626;-63
2023/05/18 05:06:46;;;;;;;3.03;2.78;;;8.10;99.90;;;;;;4967412;28;20206;-65
2023/05/18 05:09:13;;;;;;;3.97;2.87;;;8.10;99.90;;;;;;4971765;28;20184;-65
2023/05/18 05:11:39;;;;;;;2.55;2.30;;;8.10;99.90;;;;;;4971616;28;20634;-65
2023/05/18 05:14:05;;;;;;;2.55;2.33;;;8.10;99.90;;;;;;4973825;28;20650;-65
2023/05/18 05:16:30;;;;;;;3.47;3.17;;;8.20;99.90;;;;;;4973979;28;20176;-64
2023/05/18 05:18:56;;;;;;;4.13;2.20;;;8.30;99.90;;;;;;4973832;28;20180;-63
2023/05/18 05:21:22;;;;;;;2.20;2.10;;;8.40;99.90;;;;;;4974022;28;20176;-65
2023/05/18 05:23:47;;;;;;;2.73;2.37;;;8.50;99.90;;;;;;4973656;28;20232;-67
2023/05/18 05:26:13;;;;;;;3.23;2.93;;;8.70;99.90;;;;;;4973890;28;20952;-65
2023/05/18 05:28:39;;;;;;;2.77;2.57;;;8.80;99.90;;;;;;4974007;28;20243;-64
2023/05/18 05:31:05;;;;;;;10.15;3.58;;;9.00;99.90;;;;;;4973979;28;20251;-65
2023/05/18 05:33:32;;;;;;;2.70;2.30;;;9.10;99.90;;;;;;4973633;28;20303;-64
2023/05/18 05:35:58;;;;;;;4.60;2.53;;;9.30;99.90;;;;;;4973511;28;20664;-66
2023/05/18 05:38:23;;;;;;;1.60;1.53;;;9.40;99.90;;;;;;4973901;28;20304;-64
2023/05/18 05:40:49;;;;;;;3.10;2.83;;;9.60;99.90;;;;;;4974127;28;20172;-63
2023/05/18 05:43:14;;;;;;;2.43;2.23;;;9.80;99.90;;;;;;4956460;28;20255;-65
2023/05/18 05:45:42;;;;;;;3.37;2.10;;;10.00;99.90;;;;;;4973738;28;20214;-65
2023/05/18 05:48:08;;;;;;;1.95;1.85;;;10.00;99.90;;;;;;4974103;28;20165;-65
2023/05/18 05:50:33;;;;;;;2.83;1.90;;;10.10;99.90;;;;;;4974040;28;20276;-66
2023/05/18 05:52:59;;;;;;;2.03;1.73;;;10.20;99.90;;;;;;4973778;28;20508;-67
2023/05/18 05:55:25;;;;;;;1.97;1.87;;;10.20;99.90;;;;;;4947281;29;20228;-67
2023/05/18 05:57:51;;;;;;;2.57;1.70;;;10.30;99.90;;;;;;4954922;29;20175;-64
2023/05/18 06:00:17;;;;;;;2.87;2.40;;;10.40;99.90;;;;;;4972040;28;20416;-66
2023/05/18 06:02:45;;;;;;;3.60;2.10;;;10.30;99.90;;;;;;4973905;28;20208;-65
2023/05/18 06:05:11;;;;;;;1.48;1.38;;;10.40;99.90;;;;;;4973344;28;20549;-65
2023/05/18 06:07:36;;;;;;;2.20;2.10;;;10.40;99.90;;;;;;4974175;28;20222;-65
2023/05/18 06:10:02;;;;;;;1.83;1.73;;;10.50;99.90;;;;;;4973992;28;20518;-63
2023/05/18 06:12:28;;;;;;;3.30;2.03;;;10.60;99.90;;;;;;4973938;28;20183;-64
2023/05/18 06:14:57;;;;;;;2.10;1.60;;;10.70;99.90;;;;;;4973078;28;20817;-63
2023/05/18 06:17:27;;;;;;;1.90;1.50;;;10.80;99.90;;;;;;4976600;28;20536;-64
2023/05/18 06:19:53;;;;;;;2.87;2.60;;;11.00;99.90;;;;;;4977322;28;20832;-64
2023/05/18 06:22:19;;;;;;;2.10;1.77;;;11.20;99.90;;;;;;4977291;28;20418;-64
2023/05/18 06:24:45;;;;;;;2.10;2.00;;;11.30;99.90;;;;;;4976530;28;20473;-64
2023/05/18 06:27:11;;;;;;;2.37;2.23;;;11.40;99.90;;;;;;4953945;28;20265;-64
2023/05/18 06:29:36;;;;;;;2.13;1.97;;;11.50;99.90;;;;;;4957839;29;20415;-64
2023/05/18 06:32:02;;;;;;;2.80;2.60;;;11.50;99.90;;;;;;4966937;28;20945;-64
2023/05/18 06:34:28;;;;;;;3.13;2.00;;;11.60;99.90;;;;;;4976837;28;20221;-64
2023/05/18 06:36:53;;;;;;;2.10;2.00;;;11.70;99.90;;;;;;4976940;28;20592;-64
2023/05/18 06:39:19;;;;;;;1.80;1.70;;;11.90;99.90;;;;;;4959780;28;20177;-63
2023/05/18 06:41:45;;;;;;;1.77;1.50;;;12.10;99.90;;;;;;4959457;28;20577;-65
2023/05/18 06:44:11;;;;;;;3.03;2.13;;;12.30;99.90;;;;;;4976478;28;20203;-67
2023/05/18 06:46:37;;;;;;;1.20;1.20;;;12.40;99.90;;;;;;4976793;28;20219;-66
2023/05/18 06:49:03;;;;;;;1.37;1.27;;;12.60;99.90;;;;;;4976906;28;20407;-69
2023/05/18 06:51:30;;;;;;;1.80;1.70;;;12.60;99.60;;;;;;4976440;28;20423;-67
2023/05/18 06:53:56;;;;;;;1.10;1.10;;;12.50;99.70;;;;;;4976338;28;20419;-67
2023/05/18 06:56:22;;;;;;;1.90;1.53;;;12.60;99.90;;;;;;4976742;28;20418;-68
2023/05/18 06:58:47;;;;;;;2.80;1.87;;;12.70;99.90;;;;;;4974361;28;20450;-69
2023/05/18 07:01:13;;;;;;;2.57;1.20;;;12.70;99.70;;;;;;4960117;28;20486;-66
2023/05/18 07:03:39;;;;;;;1.53;1.43;;;12.70;99.20;;;;;;4975975;28;20423;-66
2023/05/18 07:06:05;;;;;;;2.27;1.30;;;12.80;99.10;;;;;;4976142;28;20688;-69
2023/05/18 07:08:31;;;;;;;1.60;1.50;;;12.80;99.40;;;;;;4975870;28;20418;-66
2023/05/18 07:10:58;;;;;;;1.60;1.50;;;12.90;99.50;;;;;;4976288;28;20435;-68
2023/05/18 07:13:24;;;;;;;2.30;2.20;;;13.00;99.70;;;;;;4974810;28;20926;-68
2023/05/18 07:15:50;;;;;;;2.30;1.90;;;13.10;99.50;;;;;;4975130;28;20465;-69
2023/05/18 07:18:15;;;;;;;1.33;1.23;;;13.30;99.90;;;;;;4976144;28;20419;-66
2023/05/18 07:20:41;;;;;;;2.07;1.97;;;13.50;99.10;;;;;;4975743;28;20195;-71
2023/05/18 07:23:07;;;;;;;1.70;1.27;;;13.60;98.80;;;;;;4958821;28;20191;-65
2023/05/18 07:25:33;;;;;;;1.70;1.60;;;13.80;99.10;;;;;;4947440;29;20780;-65
2023/05/18 07:27:58;;;;;;;2.40;1.43;;;14.00;98.90;;;;;;4939461;29;20177;-67
2023/05/18 07:30:27;;;;;;;1.00;1.00;;;14.40;98.00;;;;;;4970769;28;20517;-68
2023/05/18 07:32:55;;;;;;;2.43;2.23;;;15.00;97.50;;;;;;4972250;28;20787;-67
2023/05/18 07:35:21;;;;;;;1.73;1.60;;;15.70;96.40;;;;;;4971214;28;20451;-65
2023/05/18 07:37:48;;;;;;;2.37;2.10;;;16.40;95.90;;;;;;4975686;28;20435;-66
2023/05/18 07:40:14;;;;;;;2.23;2.03;;;17.20;95.00;;;;;;4975057;28;20427;-65
2023/05/18 07:42:40;;;;;;;1.80;1.60;;;18.10;93.40;;;;;;4975685;28;20411;-65
2023/05/18 07:45:06;;;;;;;1.50;1.40;;;19.10;92.50;;;;;;4975138;28;20238;-67
2023/05/18 07:47:32;;;;;;;2.70;1.70;;;20.20;90.10;;;;;;4975623;28;20455;-66
2023/05/18 07:49:58;;;;;;;1.20;1.20;;;21.10;84.40;;;;;;4974967;28;20477;-67
2023/05/18 07:52:24;;;;;;;2.57;2.37;;;21.90;82.70;;;;;;4975313;28;20447;-66
2023/05/18 07:54:49;;;;;;;1.53;1.43;;;22.60;79.60;;;;;;4974954;28;20228;-66
2023/05/18 07:57:15;;;;;;;1.70;1.60;;;23.40;77.50;;;;;;4975426;28;20180;-66
2023/05/18 07:59:40;;;;;;;2.07;1.97;;;23.80;73.50;;;;;;4975682;28;20184;-67
2023/05/18 08:02:06;;;;;;;3.00;1.90;;;24.30;72.80;;;;;;4975655;28;20180;-66
2023/05/18 08:04:32;;;;;;;1.47;1.37;;;24.60;70.90;;;;;;4974538;28;20212;-67
2023/05/18 08:06:59;;;;;;;2.67;2.53;;;24.80;69.00;;;;;;4975706;28;20192;-67
2023/05/18 08:09:28;;;;;;;1.73;1.63;;;24.70;69.90;;;;;;4975155;28;20301;-68
2023/05/18 08:11:53;;;;;;;1.83;1.70;;;24.80;69.10;;;;;;4975265;28;20408;-67
2023/05/18 08:14:19;;;;;;;1.63;1.53;;;24.40;65.20;;;;;;4957272;28;20954;-66
2023/05/18 08:16:45;;;;;;;1.40;1.40;;;24.30;64.70;;;;;;4975413;28;20208;-67
2023/05/18 08:19:10;;;;;;;1.90;1.80;;;24.30;65.50;;;;;;4957762;28;20272;-65
2023/05/18 08:21:36;;;;;;;1.70;1.60;;;24.10;63.90;;;;;;4975817;28;20513;-65
2023/05/18 08:24:02;;;;;;;1.80;1.70;;;23.90;65.20;;;;;;4974428;28;20195;-68
2023/05/18 08:26:28;;;;;;;2.10;2.00;;;23.80;66.30;;;;;;4975100;28;20589;-67
2023/05/18 08:28:54;;;;;;;1.37;1.37;;;23.60;63.60;;;;;;4974833;28;20457;-68
2023/05/18 08:31:20;;;;;;;1.73;1.63;;;23.50;65.20;;;;;;4974952;28;20173;-68
2023/05/18 08:33:46;;;;;;;1.73;1.30;;;23.80;65.00;;;;;;4974323;28;20275;-66
2023/05/18 08:36:12;;;;;;;1.73;1.63;;;24.20;63.60;;;;;;4975007;28;20394;-65
2023/05/18 08:38:38;;;;;;;2.93;2.20;;;24.20;63.10;;;;;;4974263;28;20677;-67
2023/05/18 08:41:21;;;;;;;2.80;1.70;;;23.90;64.40;;;;;;4974874;28;20176;-66
2023/05/18 08:43:59;;;;;;;2.20;2.00;;;24.10;61.20;;;;;;4974001;28;20208;-64
2023/05/18 08:46:34;;;;;;;1.70;1.60;;;24.20;62.50;;;;;;4975053;28;20387;-65
2023/05/18 08:49:01;;;;;;;1.57;1.47;;;24.50;60.80;;;;;;4957483;28;20423;-64
2023/05/18 08:51:32;;;;;;;1.50;1.40;;;24.60;61.20;;;;;;4957489;28;20442;-65
2023/05/18 08:53:58;;;;;;;1.57;1.47;;;24.20;61.60;;;;;;4973913;28;20481;-66
2023/05/18 08:56:27;;;;;;;1.60;1.50;;;24.40;61.70;;;;;;4957304;28;20514;-68
2023/05/18 08:58:55;;;;;;;2.27;2.07;;;24.90;61.20;;;;;;4956841;28;20176;-66
2023/05/18 09:01:27;;;;;;;1.80;1.70;;;25.40;59.60;;;;;;4974097;28;20470;-65
2023/05/18 09:03:54;;;;;;;1.67;1.57;;;25.30;59.60;;;;;;4974143;28;20525;-67
2023/05/18 09:06:23;;;;;;;4.30;2.60;;;25.10;59.90;;;;;;4974298;28;20483;-65
2023/05/18 09:08:53;;;;;;;2.23;2.03;;;24.40;59.30;;;;;;4974235;28;20416;-63
2023/05/18 09:11:18;;;;;;;2.53;1.83;;;24.10;59.10;;;;;;4974537;28;20415;-66
2023/05/18 09:13:45;;;;;;;1.83;1.70;;;23.30;59.50;;;;;;4974206;28;20412;-64
2023/05/18 09:16:10;;;;;;;1.90;1.43;;;22.50;61.60;;;;;;4974589;28;20180;-65
2023/05/18 09:18:36;;;;;;;1.90;1.70;;;22.10;60.70;;;;;;4974070;28;20405;-63
2023/05/18 09:21:02;;;;;;;3.13;2.43;;;21.40;62.50;;;;;;4974462;28;20199;-65
2023/05/18 09:23:28;;;;;;;1.67;1.57;;;20.80;64.50;;;;;;4973876;28;20176;-64
2023/05/18 09:25:55;;;;;;;4.30;1.70;;;20.90;65.60;;;;;;4974320;28;20441;-65
2023/05/18 09:28:34;;;;;;;1.67;1.57;;;21.30;64.00;;;;;;4956632;28;20185;-64
2023/05/18 09:31:00;;;;;;;2.20;1.30;;;21.60;62.80;;;;;;4974480;28;20391;-64
2023/05/18 09:33:32;;;;;;;4.50;2.63;;;21.30;63.00;;;;;;4974163;28;20932;-65
2023/05/18 09:35:58;;;;;;;1.50;1.40;;;21.40;63.20;;;;;;4974157;28;20193;-64
2023/05/18 09:38:24;;;;;;;1.43;1.33;;;21.30;63.20;;;;;;4973994;28;20433;-65
2023/05/18 09:40:50;;;;;;;4.83;2.40;;;21.20;63.60;;;;;;4974028;28;20272;-64
2023/05/18 09:43:19;;;;;;;2.27;2.00;;;20.70;64.70;;;;;;4973884;28;20180;-64
2023/05/18 09:45:47;;;;;;;1.70;1.20;;;20.60;65.90;;;;;;4974095;28;20471;-65
2023/05/18 09:48:15;;;;;;;2.13;1.80;;;20.90;66.50;;;;;;4973667;28;20479;-64
2023/05/18 09:50:42;;;;;;;3.23;1.43;;;21.30;64.30;;;;;;4975874;28;20409;-66
2023/05/18 09:53:09;;;;;;;2.50;1.63;;;21.80;64.10;;;;;;4977642;28;20412;-66
2023/05/18 09:55:48;;;;;;;3.20;1.70;;;22.20;63.50;;;;;;4977828;28;20414;-65
2023/05/18 09:58:15;;;;;;;1.50;1.40;;;23.20;62.00;;;;;;4977201;28;20431;-68
2023/05/18 10:00:55;;;;;;;2.60;2.50;;;23.40;60.00;;;;;;4977409;28;20387;-66
2023/05/18 10:03:24;;;;;;;1.90;1.80;;;23.30;59.60;;;;;;4977283;28;20411;-65
2023/05/18 10:05:50;;;;;;;1.80;1.27;;;23.30;60.30;;;;;;4977421;28;20500;-68
2023/05/18 10:08:16;;;;;;;2.03;1.90;;;23.30;59.50;;;;;;4977402;28;20439;-65
2023/05/18 10:10:47;;;;;;;2.00;1.90;;;23.50;60.30;;;;;;4977693;28;20382;-66
2023/05/18 10:13:17;;;;;;;2.23;1.60;;;23.60;59.50;;;;;;4977408;28;20713;-65
2023/05/18 10:15:54;;;;;;;1.93;1.83;;;23.80;61.10;;;;;;4960087;28;20436;-65
2023/05/18 10:18:22;;;;;;;1.80;1.70;;;24.00;58.40;;;;;;4977102;28;20555;-67
2023/05/18 10:20:50;;;;;;;2.73;1.83;;;24.10;58.10;;;;;;4977494;28;20390;-67
2023/05/18 10:23:18;;;;;;;2.03;1.90;;;23.90;57.70;;;;;;4976737;28;20389;-65
2023/05/18 10:25:45;;;;;;;1.87;1.77;;;23.30;58.10;;;;;;4977251;28;20433;-64
2023/05/18 10:28:12;;;;;;;1.80;1.70;;;22.50;58.70;;;;;;4976930;28;20532;-65
2023/05/18 10:30:40;;;;;;;1.70;1.53;;;21.80;59.70;;;;;;4977492;28;20412;-66
2023/05/18 10:33:07;;;;;;;2.63;1.47;;;21.70;59.80;;;;;;4959720;28;20398;-65
2023/05/18 10:35:37;;;;;;;1.37;1.30;;;21.70;61.00;;;;;;4976837;28;20495;-65
2023/05/18 10:38:06;;;;;;;1.67;1.57;;;21.70;61.20;;;;;;4976812;28;20479;-65
2023/05/18 10:40:33;;;;;;;1.37;1.27;;;21.70;60.90;;;;;;4976903;28;20439;-65
2023/05/18 10:43:02;;;;;;;1.37;1.27;;;21.50;61.10;;;;;;4976569;28;20400;-67
2023/05/18 10:45:31;;;;;;;2.00;1.73;;;21.90;61.50;;;;;;4976983;28;20461;-65
2023/05/18 10:47:59;;;;;;;1.77;1.43;;;22.10;59.60;;;;;;4976412;28;20510;-65
2023/05/18 10:50:25;;;;;;;1.40;1.30;;;22.20;60.40;;;;;;4976677;28;20408;-64
2023/05/18 10:52:52;;;;;;;1.50;1.40;;;22.30;59.60;;;;;;4976602;28;20472;-66
2023/05/18 10:55:18;;;;;;;1.87;1.60;;;22.50;60.30;;;;;;4976281;28;20451;-66
2023/05/18 10:57:53;;;;;;;1.57;1.47;;;22.40;59.80;;;;;;4958950;28;20977;-66
2023/05/18 11:00:19;;;;;;;1.33;1.23;;;22.40;60.70;;;;;;4976821;28;20405;-64
2023/05/18 11:02:46;;;;;;;1.80;1.70;;;22.40;59.30;;;;;;4975973;28;20434;-64
2023/05/18 11:05:12;;;;;;;1.80;1.57;;;22.40;59.80;;;;;;4975766;28;20641;-68
2023/05/18 11:07:37;;;;;;;1.60;1.50;;;22.40;59.50;;;;;;4976066;28;20456;-66
2023/05/18 11:10:09;;;;;;;1.17;1.00;;;22.20;61.20;;;;;;4976622;28;20169;-67
2023/05/18 11:12:37;;;;;;;1.90;1.70;;;21.60;61.10;;;;;;4976577;28;20187;-66
2023/05/18 11:15:04;;;;;;;1.40;1.30;;;21.10;62.10;;;;;;4975913;28;20849;-64
2023/05/18 11:17:30;;;;;;;3.63;1.70;;;20.60;63.20;;;;;;4975995;28;20436;-67
2023/05/18 11:23:02;;;;;;;1.47;1.37;;;19.80;62.60;;;;;;4976384;28;20505;-66
2023/05/18 11:25:27;;;;;;;1.30;1.20;;;19.50;64.70;;;;;;4975801;28;20525;-66
2023/05/18 11:28:04;;;;;;;2.30;1.50;;;19.20;64.10;;;;;;4976133;28;20467;-66
2023/05/18 11:30:33;;;;;;;1.47;1.37;;;18.90;66.50;;;;;;4958699;28;20209;-66
2023/05/18 11:33:24;;;;;;;2.07;1.33;;;18.60;66.80;;;;;;4975989;28;20385;-66
2023/05/18 11:35:55;;;;;;;2.20;2.07;;;18.60;66.60;;;;;;4975617;28;20475;-66
2023/05/18 11:38:22;;;;;;;2.30;1.37;;;18.50;66.30;;;;;;4976745;28;20411;-66
2023/05/18 11:40:49;;;;;;;1.83;1.23;;;18.50;65.60;;;;;;4976263;28;20439;-65
2023/05/18 11:43:22;;;;;;;1.67;1.40;;;18.50;65.50;;;;;;4976059;28;20408;-66
2023/05/18 11:45:55;;;;;;;1.60;1.50;;;18.60;65.00;;;;;;4975890;28;20611;-65
2023/05/18 11:48:30;;;;;;;1.90;1.43;;;18.60;64.80;;;;;;4977274;28;20459;-66
2023/05/18 11:50:56;;;;;;;2.63;1.20;;;18.60;66.20;;;;;;4978644;28;20412;-68
2023/05/18 11:53:25;;;;;;;2.50;2.40;;;18.70;66.60;;;;;;4977670;28;20408;-65
2023/05/18 11:56:01;;;;;;;1.67;1.57;;;18.90;67.90;;;;;;4960941;28;20289;-67
2023/05/18 11:58:29;;;;;;;2.03;1.93;;;19.00;65.80;;;;;;4979033;28;20776;-66
2023/05/18 12:00:56;;;;;;;1.50;1.40;;;19.00;65.00;;;;;;4960562;29;20485;-64
2023/05/18 12:03:24;;;;;;;2.03;1.30;;;18.90;65.80;;;;;;4958317;29;20416;-65
2023/05/18 12:05:50;;;;;;;3.27;2.40;;;18.90;66.80;;;;;;4956473;28;20865;-66
2023/05/18 12:08:18;;;;;;;2.57;1.47;;;19.00;65.30;;;;;;4957413;29;20409;-65
2023/05/18 12:10:45;;;;;;;1.30;1.20;;;19.00;66.20;;;;;;4973556;28;20755;-66
2023/05/18 12:13:13;;;;;;;1.57;1.43;;;19.10;67.10;;;;;;4974524;28;20422;-64
2023/05/18 12:15:39;;;;;;;1.67;1.57;;;19.30;66.30;;;;;;4975181;28;20432;-67
2023/05/18 12:18:05;;;;;;;1.77;1.37;;;19.50;65.40;;;;;;4975177;28;20458;-66
2023/05/18 12:20:31;;;;;;;1.20;1.20;;;19.60;65.80;;;;;;4974976;28;20422;-66
2023/05/18 12:22:57;;;;;;;3.27;1.60;;;19.40;64.00;;;;;;4975834;28;20216;-69
2023/05/18 12:25:25;;;;;;;1.07;1.07;;;19.10;64.50;;;;;;4975569;28;20741;-67
2023/05/18 12:27:52;;;;;;;1.30;1.20;;;19.00;67.10;;;;;;4975385;28;20411;-66
2023/05/18 12:30:33;;;;;;;1.57;1.47;;;19.00;67.10;;;;;;4957274;28;20423;-66
2023/05/18 12:33:00;;;;;;;1.80;1.70;;;19.10;67.10;;;;;;4974905;28;20455;-65
2023/05/18 12:35:26;;;;;;;1.30;1.30;;;19.40;66.40;;;;;;4975025;28;20431;-64
2023/05/18 12:38:00;;;;;;;3.10;1.67;;;19.40;67.10;;;;;;4974739;28;20481;-66
2023/05/18 12:40:26;;;;;;;1.67;1.57;;;19.30;67.40;;;;;;4957877;28;20451;-65
2023/05/18 12:42:53;;;;;;;2.20;1.70;;;19.00;67.50;;;;;;4974866;28;20436;-66
2023/05/18 12:45:22;;;;;;;1.40;1.20;;;18.90;67.90;;;;;;4974477;28;20459;-65
2023/05/18 12:47:53;;;;;;;2.13;2.03;;;18.90;67.50;;;;;;4974516;28;20466;-66
2023/05/18 12:50:19;;;;;;;2.30;1.63;;;19.10;67.50;;;;;;4975009;28;20710;-65
2023/05/18 12:52:46;;;;;;;2.40;1.47;;;19.20;67.50;;;;;;4974767;28;20431;-66
2023/05/18 12:55:20;;;;;;;1.70;1.37;;;19.10;67.00;;;;;;4974329;28;20803;-66
2023/05/18 12:57:57;;;;;;;1.33;1.33;;;19.10;68.40;;;;;;4974531;28;20469;-66
2023/05/18 13:00:23;;;;;;;1.23;1.20;;;19.20;69.10;;;;;;4974847;28;20841;-66
2023/05/18 13:02:49;;;;;;;1.77;1.67;;;19.40;67.40;;;;;;4974276;28;20523;-66
2023/05/18 13:05:14;;;;;;;2.00;1.70;;;19.50;68.20;;;;;;4973811;28;20674;-65
2023/05/18 13:07:42;;;;;;;2.87;2.33;;;19.50;67.20;;;;;;4974773;28;20204;-64
2023/05/18 13:10:16;;;;;;;1.03;1.03;;;19.30;66.80;;;;;;4974617;28;20181;-65
2023/05/18 13:12:47;;;;;;;1.07;1.07;;;19.00;67.00;;;;;;4974726;28;20407;-67
2023/05/18 13:15:20;;;;;;;0.70;0.70;;;18.90;68.30;;;;;;4974205;28;20774;-67
2023/05/18 13:18:01;;;;;;;4.20;1.57;;;18.90;68.40;;;;;;4974595;28;20374;-64
2023/05/18 13:20:31;;;;;;;1.50;1.40;;;19.00;67.00;;;;;;4974500;28;20438;-65
2023/05/18 13:23:01;;;;;;;1.47;0.93;;;19.20;67.60;;;;;;4974009;28;20863;-70
2023/05/18 13:25:27;;;;;;;2.73;1.23;;;19.40;68.10;;;;;;4975880;28;20506;-65
2023/05/18 13:27:53;;;;;;;1.40;1.30;;;19.30;65.90;;;;;;4978229;28;20415;-65
2023/05/18 13:30:20;;;;;;;1.57;1.30;;;19.10;66.50;;;;;;4978395;28;20203;-66
2023/05/18 13:32:46;;;;;;;1.13;1.03;;;18.90;67.40;;;;;;4960922;28;20778;-67
2023/05/18 13:35:12;;;;;;;1.00;1.00;;;18.70;67.40;;;;;;4977351;28;20442;-66
2023/05/18 13:37:38;;;;;;;2.47;1.20;;;18.70;67.00;;;;;;4978160;28;20172;-65
2023/05/18 13:40:05;;;;;;;1.07;1.07;;;18.90;66.00;;;;;;4978131;28;20382;-66
2023/05/18 13:42:31;;;;;;;1.50;1.30;;;19.00;66.00;;;;;;4978159;28;20909;-66
2023/05/18 13:44:57;;;;;;;1.30;1.30;;;19.00;69.00;;;;;;4977387;28;20467;-65
2023/05/18 13:47:22;;;;;;;0.97;0.97;;;19.10;67.40;;;;;;4978112;28;20404;-65
2023/05/18 13:49:48;;;;;;;1.03;0.93;;;19.00;69.60;;;;;;4978018;28;20272;-65
2023/05/18 13:52:14;;;;;;;2.00;1.10;;;18.90;69.20;;;;;;4978069;28;20584;-65
2023/05/18 13:54:39;;;;;;;2.00;1.23;;;18.80;68.40;;;;;;4977109;28;20292;-66
2023/05/18 13:57:06;;;;;;;1.27;1.00;;;18.70;67.10;;;;;;4977912;28;20176;-66
2023/05/18 13:59:33;;;;;;;0.87;0.87;;;18.80;68.70;;;;;;4977978;28;20243;-65
2023/05/18 14:02:00;;;;;;;1.20;1.10;;;18.90;68.00;;;;;;4977726;28;20481;-64
2023/05/18 14:04:26;;;;;;;1.63;1.53;;;19.10;67.60;;;;;;4976971;28;20984;-66
2023/05/18 14:06:53;;;;;;;1.00;0.70;;;19.30;64.60;;;;;;4977623;28;20430;-65
2023/05/18 14:09:18;;;;;;;1.97;1.50;;;19.40;64.30;;;;;;4977804;28;20168;-64
2023/05/18 14:11:44;;;;;;;2.13;1.13;;;19.40;66.70;;;;;;4977559;28;20931;-67
2023/05/18 14:14:10;;;;;;;1.27;1.17;;;19.30;66.80;;;;;;4977015;28;20586;-65
2023/05/18 14:16:35;;;;;;;1.47;1.37;;;19.20;66.70;;;;;;4977682;28;20183;-65
2023/05/18 14:19:01;;;;;;;1.23;1.13;;;19.00;65.40;;;;;;4977462;28;20635;-65
2023/05/18 14:21:27;;;;;;;1.23;1.23;;;18.80;64.60;;;;;;4977392;28;20212;-67
2023/05/18 14:23:53;;;;;;;1.33;1.33;;;18.60;65.10;;;;;;4976667;28;20883;-68
2023/05/18 14:26:18;;;;;;;1.20;1.10;;;18.50;65.00;;;;;;4977610;28;20183;-64
2023/05/18 14:28:45;;;;;;;1.43;1.33;;;18.40;65.30;;;;;;4959973;28;20207;-64
2023/05/18 14:31:10;;;;;;;1.20;1.10;;;18.60;65.70;;;;;;4977160;28;20278;-66
2023/05/18 14:33:36;;;;;;;1.10;1.10;;;18.60;66.60;;;;;;4976423;28;20498;-67
2023/05/18 14:36:01;;;;;;;1.40;1.27;;;18.70;66.80;;;;;;4976533;28;20210;-65
2023/05/18 14:38:27;;;;;;;2.37;1.53;;;18.80;67.20;;;;;;4976449;28;20180;-66
2023/05/18 14:40:53;;;;;;;1.40;1.30;;;18.80;66.50;;;;;;4959727;28;20263;-66
2023/05/18 14:43:18;;;;;;;1.50;1.40;;;18.80;65.20;;;;;;4976454;28;20187;-64
2023/05/18 14:45:44;;;;;;;2.10;0.90;;;18.70;65.30;;;;;;4976657;28;20212;-65
2023/05/18 14:48:10;;;;;;;2.50;1.30;;;18.60;64.90;;;;;;4959435;28;20204;-65
2023/05/18 14:50:36;;;;;;;1.70;1.60;;;18.50;64.90;;;;;;4976795;28;20183;-65
2023/05/18 14:53:02;;;;;;;1.73;0.90;;;18.50;64.90;;;;;;4976692;28;20263;-65
2023/05/18 14:55:27;;;;;;;1.53;1.43;;;18.50;65.80;;;;;;4976414;28;20448;-66
2023/05/18 14:57:53;;;;;;;1.20;1.20;;;18.50;65.50;;;;;;4976711;28;20230;-65
2023/05/18 15:00:19;;;;;;;1.70;1.40;;;18.50;65.20;;;;;;4976782;28;20212;-64
2023/05/18 15:02:45;;;;;;;1.13;1.03;;;18.50;66.00;;;;;;4976547;28;20214;-66
2023/05/18 15:05:10;;;;;;;2.00;1.10;;;18.50;67.10;;;;;;4958313;28;20501;-64
2023/05/18 15:07:36;;;;;;;1.33;1.20;;;18.60;66.80;;;;;;4976579;28;20203;-65
2023/05/18 15:10:03;;;;;;;1.50;1.40;;;18.60;66.90;;;;;;4959034;28;20267;-65
2023/05/18 15:12:28;;;;;;;1.20;1.10;;;18.60;66.40;;;;;;4976602;28;20407;-65
2023/05/18 15:14:54;;;;;;;1.17;1.07;;;18.70;66.50;;;;;;4975371;28;20455;-65
2023/05/18 15:17:19;;;;;;;2.47;2.27;;;18.70;66.30;;;;;;4976410;28;20180;-65
2023/05/18 15:19:45;;;;;;;0.90;0.90;;;18.80;67.00;;;;;;4976602;28;20634;-65
2023/05/18 15:22:11;;;;;;;1.40;1.30;;;18.90;65.10;;;;;;4976407;28;20643;-65
2023/05/18 15:24:37;;;;;;;1.60;1.50;;;18.90;65.90;;;;;;4975432;28;20474;-65
2023/05/18 15:27:03;;;;;;;3.90;1.73;;;19.00;66.90;;;;;;4976306;28;20176;-66
2023/05/18 15:29:28;;;;;;;1.20;1.20;;;19.10;67.70;;;;;;4976327;28;20209;-66
2023/05/18 15:31:54;;;;;;;4.30;1.60;;;19.10;66.90;;;;;;4976198;28;20412;-66
2023/05/18 15:34:20;;;;;;;3.50;1.60;;;19.00;64.10;;;;;;4975592;28;20234;-65
2023/05/18 15:36:46;;;;;;;1.40;1.30;;;18.80;64.20;;;;;;4976126;28;20408;-65
2023/05/18 15:39:11;;;;;;;1.20;1.20;;;18.60;65.40;;;;;;4976128;28;20176;-65
2023/05/18 15:41:37;;;;;;;1.23;1.13;;;18.40;66.10;;;;;;4958941;28;20192;-66
2023/05/18 15:44:03;;;;;;;1.17;1.03;;;18.30;66.90;;;;;;4975096;28;20244;-66
2023/05/18 15:46:30;;;;;;;1.63;1.53;;;18.10;66.50;;;;;;4976262;28;20183;-66
2023/05/18 15:48:57;;;;;;;3.23;1.03;;;18.10;67.20;;;;;;4958055;28;20259;-67
2023/05/18 15:51:22;;;;;;;1.57;1.30;;;18.10;68.50;;;;;;4958353;28;20418;-65
2023/05/18 15:53:48;;;;;;;1.87;1.47;;;18.10;69.00;;;;;;4974993;28;20824;-66
2023/05/18 15:56:14;;;;;;;0.97;0.87;;;18.10;69.00;;;;;;4975692;28;20176;-66
2023/05/18 15:58:39;;;;;;;1.00;1.00;;;18.00;69.50;;;;;;4975329;28;20177;-65
2023/05/18 16:01:05;;;;;;;1.53;0.97;;;18.00;68.50;;;;;;4975427;28;20206;-65
2023/05/18 16:03:30;;;;;;;2.00;1.47;;;17.90;68.90;;;;;;4975130;28;20305;-65
2023/05/18 16:05:56;;;;;;;1.13;1.13;;;17.80;68.50;;;;;;4975240;28;20218;-65
2023/05/18 16:08:22;;;;;;;2.27;1.80;;;17.70;68.40;;;;;;4975590;28;20549;-68
2023/05/18 16:10:47;;;;;;;1.10;1.10;;;17.70;68.30;;;;;;4957845;28;20438;-64
2023/05/18 16:13:13;;;;;;;1.03;1.00;;;17.70;68.50;;;;;;4975069;28;20652;-68
2023/05/18 16:15:40;;;;;;;1.60;1.50;;;17.70;68.50;;;;;;4957822;28;20675;-65
2023/05/18 16:18:05;;;;;;;3.87;1.30;;;17.70;69.30;;;;;;4975324;28;20706;-66
2023/05/18 16:20:31;;;;;;;2.67;2.53;;;17.80;69.20;;;;;;4957693;28;20541;-66
2023/05/18 16:22:57;;;;;;;2.77;1.67;;;17.90;69.20;;;;;;4975020;28;20193;-71
2023/05/18 16:25:23;;;;;;;1.60;1.43;;;17.80;69.40;;;;;;4974935;28;20547;-66
2023/05/18 16:27:49;;;;;;;1.30;0.90;;;17.80;68.90;;;;;;4975175;28;20435;-67
2023/05/18 16:30:15;;;;;;;1.03;1.00;;;17.70;70.00;;;;;;4975043;28;20423;-66
2023/05/18 16:32:42;;;;;;;2.40;1.00;;;17.70;70.60;;;;;;4975184;28;20693;-66
2023/05/18 16:35:09;;;;;;;1.20;1.20;;;17.70;70.90;;;;;;4974719;28;20248;-64
2023/05/18 16:37:35;;;;;;;1.63;1.53;;;17.70;70.60;;;;;;4975098;28;20925;-65
2023/05/18 16:40:02;;;;;;;2.30;0.90;;;17.60;70.30;;;;;;4957456;28;20826;-65
2023/05/18 16:42:27;;;;;;;1.57;1.40;;;17.70;70.60;;;;;;4974905;28;20404;-64
2023/05/18 16:44:54;;;;;;;1.70;1.60;;;17.70;70.80;;;;;;4974426;28;20454;-65
2023/05/18 16:47:20;;;;;;;1.17;1.07;;;17.70;71.40;;;;;;4957443;28;20175;-65
2023/05/18 16:49:46;;;;;;;1.40;1.30;;;17.70;71.00;;;;;;4974310;28;20480;-67
2023/05/18 16:52:13;;;;;;;1.73;1.13;;;17.70;70.90;;;;;;4974550;28;20811;-66
2023/05/18 16:54:39;;;;;;;0.90;0.90;;;17.60;71.20;;;;;;4974140;28;20285;-66